createdAt,value
2018-08-03T00:00:51.166Z,65.50
2018-08-03T00:03:18.477Z,65.20
2018-08-03T00:05:45.872Z,65.40
2018-08-03T00:08:13.170Z,65.10
2018-08-03T00:10:40.517Z,65.00
2018-08-03T00:13:07.832Z,65.30
2018-08-03T00:15:35.174Z,65.40
2018-08-03T00:18:02.500Z,65.40
2018-08-03T00:22:57.006Z,66.10
2018-08-03T00:25:24.348Z,65.90
2018-08-03T00:27:51.668Z,65.80
2018-08-03T00:32:46.186Z,66.20
2018-08-03T00:35:13.514Z,66.20
2018-08-03T00:37:40.847Z,66.60
2018-08-03T00:40:08.183Z,66.10
2018-08-03T00:42:35.535Z,66.20
2018-08-03T00:45:03.307Z,66.30
2018-08-03T00:47:30.649Z,66.30
2018-08-03T00:49:57.972Z,66.40
2018-08-03T00:52:25.684Z,66.40
2018-08-03T00:57:20.243Z,67.00
2018-08-03T00:59:47.666Z,67.30
2018-08-03T01:02:14.993Z,67.70
2018-08-03T01:04:42.313Z,67.20
2018-08-03T01:07:09.688Z,67.60
2018-08-03T01:09:37.019Z,67.80
2018-08-03T01:12:04.323Z,67.80
2018-08-03T01:14:31.622Z,67.90
2018-08-03T01:16:58.946Z,67.60
2018-08-03T01:19:26.241Z,68.00
2018-08-03T01:21:53.547Z,68.30
2018-08-03T01:24:20.863Z,67.80
2018-08-03T01:26:48.185Z,67.90
2018-08-03T01:29:15.504Z,68.30
2018-08-03T01:31:43.184Z,68.10
2018-08-03T01:34:10.533Z,68.00
2018-08-03T01:36:37.841Z,68.70
2018-08-03T01:39:06.826Z,68.30
2018-08-03T01:41:34.297Z,68.00
2018-08-03T01:44:01.585Z,68.60
2018-08-03T01:46:28.885Z,68.60
2018-08-03T01:48:56.194Z,68.50
2018-08-03T01:51:23.482Z,68.50
2018-08-03T01:53:50.782Z,68.30
2018-08-03T01:56:18.073Z,68.30
2018-08-03T01:58:45.373Z,68.50
2018-08-03T02:01:12.679Z,68.80
2018-08-03T02:03:39.989Z,68.30
2018-08-03T02:06:07.300Z,68.30
2018-08-03T02:08:34.601Z,68.50
2018-08-03T02:11:01.875Z,69.00
2018-08-03T02:13:29.286Z,68.80
2018-08-03T02:15:56.613Z,68.70
2018-08-03T02:18:23.896Z,69.00
2018-08-03T02:20:51.237Z,68.60
2018-08-03T02:23:18.542Z,68.60
2018-08-03T02:25:45.829Z,69.10
2018-08-03T02:28:13.155Z,69.10
2018-08-03T02:30:40.483Z,68.90
2018-08-03T02:33:07.934Z,68.80
2018-08-03T02:35:35.279Z,69.10
2018-08-03T02:38:02.606Z,69.30
2018-08-03T02:40:29.909Z,69.40
2018-08-03T02:42:57.275Z,69.20
2018-08-03T02:45:24.588Z,69.00
2018-08-03T02:47:51.921Z,69.20
2018-08-03T02:52:46.423Z,69.00
2018-08-03T02:55:13.745Z,69.20
2018-08-03T02:57:41.098Z,69.10
2018-08-03T03:00:08.443Z,69.30
2018-08-03T03:02:35.733Z,69.80
2018-08-03T03:05:03.115Z,70.40
2018-08-03T03:07:30.530Z,71.00
2018-08-03T03:09:57.825Z,71.80
2018-08-03T03:12:25.134Z,71.20
2018-08-03T03:14:52.476Z,71.80
2018-08-03T03:17:19.822Z,71.40
2018-08-03T03:19:47.149Z,71.50
2018-08-03T03:22:14.465Z,71.40
2018-08-03T03:27:09.925Z,71.80
2018-08-03T03:29:37.275Z,71.10
2018-08-03T03:32:04.605Z,70.50
2018-08-03T03:34:31.943Z,71.10
2018-08-03T03:36:59.274Z,71.40
2018-08-03T03:39:26.594Z,71.70
2018-08-03T03:41:53.921Z,72.20
2018-08-03T03:44:21.238Z,72.60
2018-08-03T03:46:48.560Z,72.70
2018-08-03T03:49:15.911Z,71.90
2018-08-03T03:51:43.245Z,72.30
2018-08-03T03:54:10.600Z,71.70
2018-08-03T03:56:38.295Z,72.50
2018-08-03T03:59:05.656Z,72.70
2018-08-03T04:01:32.983Z,72.50
2018-08-03T04:04:00.274Z,72.40
2018-08-03T04:08:54.878Z,71.50
2018-08-03T04:11:22.200Z,71.30
2018-08-03T04:13:49.513Z,71.40
2018-08-03T04:16:16.847Z,72.20
2018-08-03T04:18:44.191Z,71.60
2018-08-03T04:21:11.558Z,71.40
2018-08-03T04:23:38.935Z,71.60
2018-08-03T04:26:06.269Z,71.60
2018-08-03T04:28:33.570Z,71.30
2018-08-03T04:31:00.891Z,71.80
2018-08-03T04:33:28.437Z,71.70
2018-08-03T04:35:55.731Z,71.00
2018-08-03T04:38:23.040Z,71.30
2018-08-03T04:40:50.363Z,71.30
2018-08-03T04:43:17.695Z,71.40
2018-08-03T04:45:45.067Z,71.30
2018-08-03T04:48:12.459Z,71.00
2018-08-03T04:50:39.834Z,71.30
2018-08-03T04:53:07.187Z,71.50
2018-08-03T04:55:34.533Z,71.20
2018-08-03T04:58:01.869Z,71.30
2018-08-03T05:00:29.259Z,71.70
2018-08-03T05:02:56.582Z,71.60
2018-08-03T05:05:23.893Z,71.80
2018-08-03T05:07:51.226Z,71.60
2018-08-03T05:10:18.569Z,71.30
2018-08-03T05:12:45.951Z,71.40
2018-08-03T05:15:13.309Z,71.50
2018-08-03T05:17:40.726Z,71.40
2018-08-03T05:20:08.594Z,71.30
2018-08-03T05:22:35.948Z,71.80
2018-08-03T05:25:03.664Z,71.90
2018-08-03T05:27:31.015Z,71.80
2018-08-03T05:29:58.539Z,70.00
2018-08-03T05:32:25.871Z,69.10
2018-08-03T05:34:53.269Z,69.40
2018-08-03T05:37:20.711Z,70.00
2018-08-03T05:39:48.116Z,70.20
2018-08-03T05:42:15.435Z,70.00
2018-08-03T05:44:42.779Z,69.90
2018-08-03T05:47:10.226Z,69.90
2018-08-03T05:49:37.570Z,70.20
2018-08-03T05:52:04.875Z,70.00
2018-08-03T05:54:32.211Z,69.90
2018-08-03T05:56:59.564Z,69.50
2018-08-03T05:59:26.925Z,69.30
2018-08-03T06:01:54.248Z,69.10
2018-08-03T06:04:21.635Z,68.80
2018-08-03T06:06:48.994Z,68.70
2018-08-03T06:09:16.326Z,68.90
2018-08-03T06:11:43.663Z,68.40
2018-08-03T06:14:11.005Z,68.50
2018-08-03T06:16:38.355Z,68.10
2018-08-03T06:19:05.880Z,68.40
2018-08-03T06:21:33.196Z,68.20
2018-08-03T06:24:00.555Z,67.60
2018-08-03T06:26:27.895Z,67.40
2018-08-03T06:28:55.396Z,67.00
2018-08-03T06:31:22.828Z,67.20
2018-08-03T06:33:50.227Z,66.80
2018-08-03T06:36:17.666Z,66.90
2018-08-03T06:38:45.013Z,67.00
2018-08-03T06:41:12.383Z,66.90
2018-08-03T06:43:39.691Z,66.70
2018-08-03T06:46:07.003Z,66.80
2018-08-03T06:48:34.433Z,66.70
2018-08-03T06:51:01.716Z,66.80
2018-08-03T06:53:29.022Z,66.50
2018-08-03T06:55:56.407Z,66.10
2018-08-03T07:00:51.088Z,66.70
2018-08-03T07:03:18.465Z,66.00
2018-08-03T07:05:45.847Z,65.90
2018-08-03T07:08:13.175Z,66.00
2018-08-03T07:10:40.519Z,65.00
2018-08-03T07:13:07.851Z,64.60
2018-08-03T07:15:35.196Z,64.40
2018-08-03T07:18:02.590Z,64.00
2018-08-03T07:20:30.093Z,63.80
2018-08-03T07:22:57.267Z,64.80
2018-08-03T07:25:24.596Z,63.90
2018-08-03T07:27:51.977Z,63.20
2018-08-03T07:30:19.362Z,63.10
2018-08-03T07:32:46.709Z,62.70
2018-08-03T07:35:14.065Z,62.90
2018-08-03T07:37:41.501Z,62.80
2018-08-03T07:40:08.861Z,62.10
2018-08-03T07:42:36.251Z,62.30
2018-08-03T07:45:03.894Z,62.00
2018-08-03T07:47:31.192Z,62.10
2018-08-03T07:49:58.536Z,62.30
2018-08-03T07:52:26.046Z,61.80
2018-08-03T07:54:53.392Z,61.50
2018-08-03T07:57:20.784Z,61.40
2018-08-03T07:59:48.140Z,61.60
2018-08-03T08:02:15.456Z,61.40
2018-08-03T08:04:42.767Z,61.30
2018-08-03T08:07:10.223Z,61.30
2018-08-03T08:09:37.551Z,61.00
2018-08-03T08:12:04.864Z,60.60
2018-08-03T08:14:32.198Z,60.70
2018-08-03T08:16:59.598Z,60.80
2018-08-03T08:19:26.898Z,60.90
2018-08-03T08:21:54.229Z,60.60
2018-08-03T08:24:21.603Z,60.70
2018-08-03T08:26:49.239Z,60.50
2018-08-03T08:29:16.575Z,60.70
2018-08-03T08:31:43.929Z,60.40
2018-08-03T08:34:11.258Z,60.50
2018-08-03T08:36:38.660Z,59.50
2018-08-03T08:39:07.667Z,59.60
2018-08-03T08:41:35.064Z,59.40
2018-08-03T08:44:02.647Z,59.30
2018-08-03T08:46:30.004Z,58.90
2018-08-03T08:48:57.337Z,59.50
2018-08-03T08:51:24.669Z,59.30
2018-08-03T08:53:52.082Z,59.20
2018-08-03T08:56:19.399Z,59.10
2018-08-03T08:58:46.764Z,59.10
2018-08-03T09:01:14.129Z,59.10
2018-08-03T09:03:41.450Z,59.10
2018-08-03T09:06:08.803Z,59.30
2018-08-03T09:08:36.186Z,58.70
2018-08-03T09:11:03.526Z,59.00
2018-08-03T09:13:30.848Z,58.70
2018-08-03T09:15:58.188Z,58.50
2018-08-03T09:18:25.518Z,57.80
2018-08-03T09:20:52.867Z,57.90
2018-08-03T09:23:20.265Z,58.30
2018-08-03T09:25:47.599Z,57.60
2018-08-03T09:28:14.925Z,57.70
2018-08-03T09:30:42.273Z,57.90
2018-08-03T09:33:09.661Z,57.40
2018-08-03T09:35:36.963Z,56.60
2018-08-03T09:38:04.639Z,56.00
2018-08-03T09:40:31.972Z,55.90
2018-08-03T09:42:59.420Z,55.30
2018-08-03T09:45:26.671Z,55.90
2018-08-03T09:47:54.088Z,55.90
2018-08-03T09:50:21.449Z,55.00
2018-08-03T09:52:48.815Z,55.60
2018-08-03T09:55:16.184Z,54.70
2018-08-03T09:57:43.519Z,54.50
2018-08-03T10:00:10.896Z,54.00
2018-08-03T10:02:38.304Z,54.70
2018-08-03T10:05:05.624Z,54.10
2018-08-03T10:07:32.980Z,54.30
2018-08-03T10:10:00.318Z,53.80
2018-08-03T10:12:27.643Z,52.50
2018-08-03T10:14:55.000Z,52.70
2018-08-03T10:17:22.343Z,53.10
2018-08-03T10:19:49.827Z,52.80
2018-08-03T10:22:17.174Z,52.90
2018-08-03T10:24:44.487Z,53.30
2018-08-03T10:27:11.895Z,52.90
2018-08-03T10:29:39.280Z,52.30
2018-08-03T10:32:06.639Z,52.10
2018-08-03T10:34:33.961Z,51.90
2018-08-03T10:37:01.297Z,51.80
2018-08-03T10:39:28.648Z,51.70
2018-08-03T10:41:56.017Z,50.70
2018-08-03T10:44:23.344Z,50.90
2018-08-03T10:46:50.681Z,51.30
2018-08-03T10:49:18.058Z,51.00
2018-08-03T10:51:45.408Z,51.50
2018-08-03T10:54:12.750Z,50.60
2018-08-03T10:59:07.278Z,50.70
2018-08-03T11:01:34.669Z,50.20
2018-08-03T11:04:01.944Z,50.40
2018-08-03T11:06:29.276Z,49.70
2018-08-03T11:08:56.576Z,49.70
2018-08-03T11:11:23.941Z,50.10
2018-08-03T11:13:51.306Z,49.80
2018-08-03T11:16:18.658Z,49.60
2018-08-03T11:18:46.010Z,49.00
2018-08-03T11:21:13.706Z,48.90
2018-08-03T11:23:41.103Z,48.70
2018-08-03T11:26:08.479Z,48.00
2018-08-03T11:28:35.923Z,47.70
2018-08-03T11:31:03.223Z,47.20
2018-08-03T11:33:30.564Z,47.00
2018-08-03T11:35:57.874Z,47.50
2018-08-03T11:38:25.235Z,47.60
2018-08-03T11:40:52.648Z,47.50
2018-08-03T11:43:19.984Z,46.70
2018-08-03T11:45:47.303Z,46.80
2018-08-03T11:48:14.664Z,46.50
2018-08-03T11:50:41.984Z,46.80
2018-08-03T11:53:09.295Z,46.30
2018-08-03T11:55:36.614Z,46.80
2018-08-03T11:58:03.930Z,46.70
2018-08-03T12:00:31.256Z,46.10
2018-08-03T12:02:58.563Z,45.00
2018-08-03T12:05:26.025Z,45.00
2018-08-03T12:07:53.413Z,45.00
2018-08-03T12:10:20.760Z,44.90
2018-08-03T12:12:48.079Z,44.90
2018-08-03T12:15:15.378Z,44.50
2018-08-03T12:17:42.704Z,45.20
2018-08-03T12:20:10.036Z,45.70
2018-08-03T12:22:37.379Z,46.30
2018-08-03T12:25:04.756Z,46.40
2018-08-03T12:27:32.103Z,46.90
2018-08-03T12:29:59.407Z,46.30
2018-08-03T12:32:26.905Z,46.80
2018-08-03T12:34:54.208Z,46.10
2018-08-03T12:37:21.600Z,46.30
2018-08-03T12:39:48.976Z,46.50
2018-08-03T12:42:16.374Z,45.70
2018-08-03T12:44:43.721Z,45.90
2018-08-03T12:47:11.082Z,46.50
2018-08-03T12:49:38.387Z,46.50
2018-08-03T12:52:05.744Z,46.00
2018-08-03T12:57:00.283Z,46.30
2018-08-03T12:59:27.662Z,46.00
2018-08-03T13:01:55.094Z,46.30
2018-08-03T13:04:22.626Z,46.10
2018-08-03T13:06:50.173Z,45.50
2018-08-03T13:09:17.638Z,46.10
2018-08-03T13:11:44.966Z,46.40
2018-08-03T13:14:12.323Z,46.20
2018-08-03T13:16:39.642Z,46.40
2018-08-03T13:19:06.981Z,46.40
2018-08-03T13:21:36.545Z,46.10
2018-08-03T13:24:03.903Z,46.30
2018-08-03T13:26:31.258Z,45.60
2018-08-03T13:28:58.585Z,45.60
2018-08-03T13:31:25.928Z,46.10
2018-08-03T13:33:53.733Z,45.70
2018-08-03T13:36:21.123Z,45.80
2018-08-03T13:38:48.843Z,45.20
2018-08-03T13:41:16.193Z,44.80
2018-08-03T13:43:43.564Z,45.10
2018-08-03T13:46:10.931Z,45.10
2018-08-03T13:48:38.276Z,44.90
2018-08-03T13:51:05.604Z,45.80
2018-08-03T13:53:33.234Z,46.10
2018-08-03T13:56:00.551Z,45.40
2018-08-03T13:58:27.886Z,44.90
2018-08-03T14:01:06.548Z,45.20
2018-08-03T14:03:33.911Z,44.80
2018-08-03T14:06:01.229Z,45.80
2018-08-03T14:08:28.536Z,46.60
2018-08-03T14:10:55.951Z,45.80
2018-08-03T14:13:23.711Z,46.90
2018-08-03T14:15:51.296Z,45.80
2018-08-03T14:18:18.642Z,47.10
2018-08-03T14:20:45.940Z,45.60
2018-08-03T14:23:13.361Z,45.20
2018-08-03T14:25:40.664Z,45.00
2018-08-03T14:28:07.995Z,45.40
2018-08-03T14:30:35.354Z,45.20
2018-08-03T14:35:29.904Z,45.20
2018-08-03T14:37:57.215Z,45.00
2018-08-03T14:40:24.607Z,44.70
2018-08-03T14:42:51.965Z,45.00
2018-08-03T14:45:19.451Z,44.70
2018-08-03T14:47:46.772Z,45.20
2018-08-03T14:50:14.209Z,44.70
2018-08-03T14:52:41.595Z,44.90
2018-08-03T14:55:09.040Z,45.00
2018-08-03T14:57:36.381Z,45.10
2018-08-03T15:00:04.962Z,44.90
2018-08-03T15:02:32.286Z,45.30
2018-08-03T15:04:59.608Z,45.50
2018-08-03T15:07:26.927Z,46.80
2018-08-03T15:09:54.281Z,46.40
2018-08-03T15:12:21.628Z,46.30
2018-08-03T15:14:48.963Z,45.90
2018-08-03T15:17:16.299Z,45.70
2018-08-03T15:19:43.683Z,46.40
2018-08-03T15:22:10.987Z,45.90
2018-08-03T15:24:38.300Z,45.50
2018-08-03T15:27:05.779Z,46.10
2018-08-03T15:29:33.083Z,46.10
2018-08-03T15:32:00.402Z,46.10
2018-08-03T15:34:27.691Z,45.50
2018-08-03T15:36:55.092Z,46.10
2018-08-03T15:39:22.406Z,46.00
2018-08-03T15:41:49.699Z,45.60
2018-08-03T15:44:17.016Z,44.80
2018-08-03T15:46:44.311Z,45.50
2018-08-03T15:49:11.687Z,45.00
2018-08-03T15:51:39.000Z,44.70
2018-08-03T15:54:06.355Z,44.60
2018-08-03T15:56:33.803Z,44.70
2018-08-03T15:59:01.157Z,44.40
2018-08-03T16:01:28.455Z,45.80
2018-08-03T16:03:55.837Z,44.50
2018-08-03T16:06:23.147Z,44.70
2018-08-03T16:08:50.469Z,45.40
2018-08-03T16:11:17.769Z,44.00
2018-08-03T16:13:45.132Z,43.70
2018-08-03T16:16:12.417Z,43.10
2018-08-03T16:18:39.766Z,44.20
2018-08-03T16:21:07.092Z,43.90
2018-08-03T16:23:34.515Z,44.70
2018-08-03T16:26:01.987Z,43.40
2018-08-03T16:28:29.283Z,43.80
2018-08-03T16:30:56.608Z,45.00
2018-08-03T16:33:23.947Z,43.70
2018-08-03T16:35:51.281Z,42.40
2018-08-03T16:38:18.574Z,43.40
2018-08-03T16:40:45.904Z,41.60
2018-08-03T16:43:13.259Z,40.90
2018-08-03T16:45:40.567Z,45.00
2018-08-03T16:48:07.856Z,39.90
2018-08-03T16:50:35.323Z,41.30
2018-08-03T16:53:02.776Z,38.50
2018-08-03T16:55:30.123Z,38.30
2018-08-03T16:57:57.570Z,41.00
2018-08-03T17:00:24.953Z,42.70
2018-08-03T17:02:52.279Z,39.90
2018-08-03T17:05:19.646Z,42.20
2018-08-03T17:07:47.411Z,37.80
2018-08-03T17:10:14.730Z,37.70
2018-08-03T17:12:42.047Z,37.70
2018-08-03T17:15:09.450Z,37.30
2018-08-03T17:17:36.826Z,38.70
2018-08-03T17:20:04.801Z,38.50
2018-08-03T17:22:32.183Z,38.60
2018-08-03T17:24:59.539Z,39.10
2018-08-03T17:27:26.916Z,38.80
2018-08-03T17:29:54.231Z,39.30
2018-08-03T17:32:21.549Z,39.50
